»·PEaware :: WAT540 KRDD-1O5

WAT540 :: KRDD-1O5

FLIGHT INFORMATION

Flight Status: Arrived
Operator:
Walker Air Transport
More flights by this operator :: More flights under this callsign
Pilot: Michael R. (33632)
Aircraft: GRUMMAN AERO AA5 CHEETAH TIGER
(AA5)
More flights by this aircraft type
Origin: KRDD Redding Mun
United States
Destination: 1O5 Montague-Yreka Rohrer
United States
More flights between these airports :: More routes between these airports
Route:
File this flight plan on PilotEdge
Remarks:
Altitude:
(Current/Filed)
8,500ft
Speed:
(Current/Filed)
130kts
Departed: 18-Feb-21 01:36 AM
Arrived: 18-Feb-21 02:17 AM
Distance/Time
Traveled:
74nm/0:41
Distance/Time
To Go:
Arrived

Flight Plot

Page will automatically refresh every two minutes.

Flight plan parsing failed; only flown route is shown


Map Options




Map Legend


Flown Route
Filed Route
Departure Airport
Arrival Airport
Navaid (VOR, NDB)
Fix

Horizontal Profiles

Position Reports

Time Latitude Longitude Heading Altitude Ground
Speed
18-Feb-21 01:14 40.505878 -122.299064 315 492ft 0kts
18-Feb-21 01:15 40.505878 -122.299064 315 492ft 0kts
18-Feb-21 01:16 40.505878 -122.299064 315 492ft 0kts
18-Feb-21 01:17 40.505878 -122.299064 315 492ft 0kts
18-Feb-21 01:18 40.505878 -122.299064 315 492ft 0kts
18-Feb-21 01:19 40.505878 -122.299064 315 492ft 0kts
18-Feb-21 01:20 40.505878 -122.299064 315 492ft 0kts
18-Feb-21 01:21 40.505878 -122.299064 315 492ft 0kts
18-Feb-21 01:22 40.505878 -122.299064 315 492ft 0kts
18-Feb-21 01:23 40.505878 -122.299064 315 492ft 0kts
18-Feb-21 01:24 40.505878 -122.299064 315 492ft 0kts
18-Feb-21 01:25 40.505878 -122.299064 315 492ft 0kts
18-Feb-21 01:26 40.505878 -122.299064 315 492ft 0kts
18-Feb-21 01:27 40.505878 -122.299064 315 492ft 0kts
18-Feb-21 01:28 40.505878 -122.299064 315 492ft 0kts
18-Feb-21 01:29 40.505889 -122.299067 5 492ft 0kts
18-Feb-21 01:30 40.502826 -122.297120 134 491ft 17kts
18-Feb-21 01:31 40.501311 -122.296057 99 490ft 0kts
18-Feb-21 01:32 40.501311 -122.296057 99 490ft 0kts
18-Feb-21 01:33 40.501311 -122.296057 99 490ft 0kts
18-Feb-21 01:34 40.501311 -122.296057 99 490ft 0kts
18-Feb-21 01:35 40.507333 -122.294754 1 581ft 74kts
18-Feb-21 01:36 40.529614 -122.294005 359 1449ft 82kts
18-Feb-21 01:37 40.553216 -122.293868 357 2287ft 88kts
18-Feb-21 01:38 40.578050 -122.293950 357 3121ft 91kts
18-Feb-21 01:39 40.603938 -122.294077 357 3861ft 96kts
18-Feb-21 01:40 40.630807 -122.294200 357 4595ft 96kts
18-Feb-21 01:41 40.657518 -122.294326 356 5306ft 95kts
18-Feb-21 01:42 40.683727 -122.294455 356 5976ft 94kts
18-Feb-21 01:43 40.710804 -122.294593 356 6546ft 98kts
18-Feb-21 01:44 40.738122 -122.294718 356 7124ft 98kts
18-Feb-21 01:45 40.765123 -122.294846 355 7676ft 97kts
18-Feb-21 01:46 40.791993 -122.294726 357 8198ft 97kts
18-Feb-21 01:47 40.820775 -122.293480 357 8501ft 106kts
18-Feb-21 01:48 40.853749 -122.291982 358 8496ft 116kts
18-Feb-21 01:49 40.886449 -122.290471 358 8495ft 118kts
18-Feb-21 01:50 40.919325 -122.288955 358 8495ft 118kts
18-Feb-21 01:51 40.952529 -122.287423 358 8495ft 119kts
18-Feb-21 01:52 40.985452 -122.285938 358 8497ft 118kts
18-Feb-21 01:53 41.018851 -122.284841 358 8501ft 118kts
18-Feb-21 01:54 41.051752 -122.283584 359 8505ft 117kts
18-Feb-21 01:55 41.084400 -122.282165 0 8508ft 117kts
18-Feb-21 01:56 41.117114 -122.280697 0 8515ft 117kts
18-Feb-21 01:57 41.150001 -122.279187 0 8516ft 118kts
18-Feb-21 01:58 41.183011 -122.277678 0 8516ft 118kts
18-Feb-21 01:59 41.216248 -122.276160 0 8516ft 118kts
18-Feb-21 02:00 41.249346 -122.274650 0 8516ft 118kts
18-Feb-21 02:01 41.280554 -122.284967 339 8516ft 118kts
18-Feb-21 02:02 41.312047 -122.301824 338 8508ft 118kts
18-Feb-21 02:03 41.347422 -122.322191 338 8036ft 136kts
18-Feb-21 02:04 41.380540 -122.341455 338 7654ft 137kts
18-Feb-21 02:05 41.416072 -122.359773 342 7259ft 137kts
18-Feb-21 02:06 41.452313 -122.379940 338 6869ft 139kts
18-Feb-21 02:07 41.487841 -122.402998 335 6408ft 144kts
18-Feb-21 02:08 41.523774 -122.426935 335 5943ft 145kts
18-Feb-21 02:09 41.559904 -122.451160 335 5485ft 145kts
18-Feb-21 02:10 41.595525 -122.475238 335 5018ft 139kts
18-Feb-21 02:11 41.630129 -122.498272 338 4412ft 139kts
18-Feb-21 02:12 41.661029 -122.513543 344 3961ft 95kts
18-Feb-21 02:13 41.683845 -122.524164 344 3535ft 83kts
18-Feb-21 02:14 41.704802 -122.532905 343 3137ft 75kts
18-Feb-21 02:15 41.724420 -122.541980 341 2585ft 74kts
18-Feb-21 02:16 41.729460 -122.543810 80 2524ft 8kts
18-Feb-21 02:17 41.729042 -122.543161 83 2525ft 0kts
18-Feb-21 02:18 41.729042 -122.543161 83 2525ft 0kts
18-Feb-21 02:19 41.729042 -122.543161 83 2525ft 0kts
18-Feb-21 02:20 41.729042 -122.543161 83 2525ft 0kts
18-Feb-21 02:21 41.729042 -122.543161 83 2525ft 0kts
18-Feb-21 02:22 41.729042 -122.543161 83 2525ft 0kts
18-Feb-21 02:23 41.729042 -122.543161 83 2525ft 0kts
18-Feb-21 02:24 41.729042 -122.543161 83 2525ft 0kts
18-Feb-21 02:25 41.729042 -122.543161 83 2525ft 0kts
18-Feb-21 02:26 41.729042 -122.543161 83 2525ft 0kts
18-Feb-21 02:27 41.729042 -122.543161 83 2525ft 0kts
18-Feb-21 02:28 41.729042 -122.543161 83 2525ft 0kts
18-Feb-21 02:29 41.729042 -122.543161 83 2525ft 0kts
18-Feb-21 02:30 41.729042 -122.543161 83 2525ft 0kts

Navigation Log

Ident Type
Flight plan parsing failed, navigation log unavailable